Time;durP1;ratioP1;P1;durP2;ratioP2;P2;SDS_P1;SDS_P2;PMS_P1;PMS_P2;Temp;Humidity;BMP_temperature;BMP_pressure;BME280_temperature;BME280_humidity;BME280_pressure;Samples;Min_cycle;Max_cycle;Signal;HPM_P1;HPM_P2
2023/09/26 00:02:13;;;;;;;7.10;4.55;;;;;;;17.05;68.74;95143.72;5089465;28;20039;-70
2023/09/26 00:04:38;;;;;;;9.38;4.40;;;;;;;17.26;68.37;95145.94;5089564;28;20527;-70
2023/09/26 00:07:04;;;;;;;6.15;4.25;;;;;;;17.17;68.45;95152.97;5072699;28;20073;-70
2023/09/26 00:09:30;;;;;;;7.18;4.32;;;;;;;17.22;67.77;95134.94;5089444;28;20036;-70
2023/09/26 00:11:56;;;;;;;8.15;4.40;;;;;;;17.02;67.88;95134.38;5090644;28;20023;-70
2023/09/26 00:14:21;;;;;;;6.60;4.38;;;;;;;16.98;68.27;95144.34;5089548;28;20029;-70
2023/09/26 00:16:47;;;;;;;6.20;4.28;;;;;;;16.80;69.17;95141.03;5072726;28;20035;-70
2023/09/26 00:19:12;;;;;;;7.60;4.28;;;;;;;16.70;69.61;95145.53;5089141;28;20033;-70
2023/09/26 00:21:37;;;;;;;7.57;4.50;;;;;;;16.74;69.58;95149.47;5092795;28;20024;-70
2023/09/26 00:24:03;;;;;;;7.97;4.47;;;;;;;16.92;69.60;95144.19;5094657;28;20035;-70
2023/09/26 00:26:28;;;;;;;8.20;4.50;;;;;;;16.84;69.31;95150.22;5093429;28;20031;-70
2023/09/26 00:28:54;;;;;;;8.50;4.07;;;;;;;16.89;69.18;95147.94;5074979;28;20040;-70
2023/09/26 00:31:19;;;;;;;5.57;4.32;;;;;;;16.89;69.29;95149.75;5056392;28;20032;-70
2023/09/26 00:33:45;;;;;;;6.05;4.32;;;;;;;16.87;69.06;95141.19;5074130;28;20097;-70
2023/09/26 00:36:10;;;;;;;8.02;4.20;;;;;;;16.65;69.24;95145.97;5055825;28;20033;-70
2023/09/26 00:38:36;;;;;;;5.72;4.00;;;;;;;16.70;69.71;95145.53;5072780;28;20409;-70
2023/09/26 00:41:01;;;;;;;8.73;4.40;;;;;;;16.67;69.67;95140.59;5089755;28;20075;-72
2023/09/26 00:43:27;;;;;;;5.47;3.95;;;;;;;16.63;69.50;95140.09;5072676;28;20032;-70
2023/09/26 00:45:54;;;;;;;6.63;4.20;;;;;;;16.62;69.32;95127.13;5080589;28;20036;-70
2023/09/26 00:48:21;;;;;;;5.85;3.97;;;;;;;16.58;69.60;95141.53;5076063;28;20066;-70
2023/09/26 00:50:47;;;;;;;7.07;4.10;;;;;;;16.42;69.97;95143.06;5094593;28;20043;-70
2023/09/26 00:53:12;;;;;;;7.57;4.25;;;;;;;16.27;70.26;95134.16;5075974;28;20028;-70
2023/09/26 00:55:38;;;;;;;7.50;4.22;;;;;;;16.07;71.06;95131.72;5077311;28;20042;-70
2023/09/26 00:58:03;;;;;;;7.60;4.70;;;;;;;15.86;70.56;95099.78;5072366;28;20079;-70
2023/09/26 01:00:29;;;;;;;10.15;4.55;;;;;;;16.01;70.66;95129.69;5074112;28;20033;-70
2023/09/26 01:02:54;;;;;;;8.18;4.65;;;;;;;16.02;70.30;95125.28;5072051;28;20033;-70
2023/09/26 01:05:20;;;;;;;6.10;4.45;;;;;;;16.09;70.63;95136.78;5093288;28;20549;-70
2023/09/26 01:07:46;;;;;;;8.07;4.10;;;;;;;16.08;70.67;95141.22;5093765;28;20024;-70
2023/09/26 01:10:11;;;;;;;7.80;4.38;;;;;;;16.14;70.96;95136.34;5092738;28;20185;-70
2023/09/26 01:12:38;;;;;;;7.18;4.72;;;;;;;15.86;70.66;95098.00;5074526;28;20497;-70
2023/09/26 01:15:05;;;;;;;7.88;4.60;;;;;;;16.17;70.45;95125.56;5075740;28;20070;-71
2023/09/26 01:17:32;;;;;;;8.05;4.47;;;;;;;16.19;70.35;95132.28;5092353;28;20024;-70
2023/09/26 01:19:57;;;;;;;6.70;4.20;;;;;;;16.17;70.14;95134.22;5075710;28;20476;-70
2023/09/26 01:22:24;;;;;;;6.28;4.35;;;;;;;16.07;70.46;95129.09;5091984;28;20028;-70
2023/09/26 01:24:50;;;;;;;8.85;5.03;;;;;;;16.08;70.02;95120.25;5092343;28;20028;-70
2023/09/26 01:27:15;;;;;;;9.07;4.35;;;;;;;15.99;70.26;95120.34;5058563;28;20518;-70
2023/09/26 01:29:41;;;;;;;7.55;4.70;;;;;;;15.92;71.06;95120.13;5092344;28;20039;-70
2023/09/26 01:32:06;;;;;;;8.27;4.57;;;;;;;15.88;71.51;95124.03;5075520;28;20033;-70
2023/09/26 01:34:32;;;;;;;9.55;4.90;;;;;;;15.70;71.72;95126.66;5073205;28;20028;-70
2023/09/26 01:36:57;;;;;;;8.68;4.72;;;;;;;15.71;72.02;95125.72;5055054;28;20032;-70
2023/09/26 01:39:23;;;;;;;11.02;4.95;;;;;;;15.53;72.06;95117.00;5073481;28;20419;-69
2023/09/26 01:41:48;;;;;;;5.75;4.72;;;;;;;15.57;72.66;95120.94;5093143;28;20032;-69
2023/09/26 01:44:13;;;;;;;10.27;4.72;;;;;;;15.55;72.61;95120.28;5093177;28;20074;-70
2023/09/26 01:46:39;;;;;;;9.80;4.78;;;;;;;15.56;72.77;95121.94;5091936;28;20035;-70
2023/09/26 01:49:04;;;;;;;12.73;4.97;;;;;;;15.59;72.47;95124.25;5087151;28;20032;-70
2023/09/26 01:51:30;;;;;;;9.60;4.70;;;;;;;15.74;71.64;95120.16;5071555;28;20154;-70
2023/09/26 01:53:55;;;;;;;8.13;4.43;;;;;;;15.62;71.29;95103.81;5072714;28;20094;-70
2023/09/26 01:56:21;;;;;;;7.63;4.80;;;;;;;15.72;71.20;95122.09;5071209;28;20490;-70
2023/09/26 01:58:47;;;;;;;9.35;4.47;;;;;;;15.81;71.02;95117.75;5082539;28;20044;-70
2023/09/26 02:01:13;;;;;;;8.48;4.53;;;;;;;15.83;70.26;95100.91;5091575;28;20060;-70
2023/09/26 02:03:38;;;;;;;13.55;5.05;;;;;;;15.89;70.42;95130.91;5074620;28;20318;-69
2023/09/26 02:06:04;;;;;;;7.70;4.60;;;;;;;15.99;70.17;95129.03;5091506;28;20069;-70
2023/09/26 02:08:29;;;;;;;9.13;4.57;;;;;;;15.93;70.53;95126.19;5088302;28;20028;-70
2023/09/26 02:10:54;;;;;;;8.18;5.18;;;;;;;15.82;70.66;95114.16;5073843;28;20229;-70
2023/09/26 02:13:20;;;;;;;11.68;5.25;;;;;;;15.88;70.64;95134.53;5091068;28;20351;-70
2023/09/26 02:15:45;;;;;;;8.63;4.47;;;;;;;15.60;70.93;95097.94;5091217;28;20031;-70
2023/09/26 02:18:11;;;;;;;8.18;4.70;;;;;;;15.92;70.74;95135.84;5091230;28;20077;-70
2023/09/26 02:20:36;;;;;;;8.35;4.43;;;;;;;15.99;70.44;95136.91;5092928;28;20474;-69
2023/09/26 02:23:02;;;;;;;7.22;4.78;;;;;;;15.86;70.81;95136.47;5089848;28;20554;-70
2023/09/26 02:25:28;;;;;;;10.05;4.50;;;;;;;15.95;70.46;95132.09;5090216;28;20113;-70
2023/09/26 02:27:53;;;;;;;7.95;4.50;;;;;;;16.05;71.27;95136.28;5092216;28;20137;-70
2023/09/26 02:30:23;;;;;;;9.27;4.55;;;;;;;16.08;70.07;95133.34;5092686;28;20066;-70
2023/09/26 02:32:48;;;;;;;7.20;4.20;;;;;;;15.83;69.94;95094.84;5090894;28;20069;-70
2023/09/26 02:35:15;;;;;;;7.57;4.45;;;;;;;16.02;70.71;95131.34;5090415;28;20040;-70
2023/09/26 02:37:41;;;;;;;9.60;4.80;;;;;;;15.94;69.93;95122.63;5091121;28;20028;-70
2023/09/26 02:40:07;;;;;;;7.78;4.32;;;;;;;16.08;69.24;95122.88;5092456;28;20039;-70
2023/09/26 02:42:33;;;;;;;11.00;4.90;;;;;;;15.99;69.26;95122.94;5091897;28;20085;-70
2023/09/26 02:44:59;;;;;;;8.00;4.10;;;;;;;15.96;69.37;95118.84;5088966;28;20040;-70
2023/09/26 02:47:24;;;;;;;5.95;3.83;;;;;;;16.13;66.84;95132.06;5057175;28;20482;-70
2023/09/26 02:49:49;;;;;;;9.23;3.92;;;;;;;15.94;66.17;95120.00;5090730;28;20383;-70
2023/09/26 02:52:15;;;;;;;7.82;4.30;;;;;;;16.02;69.38;95131.34;5069474;28;20028;-70
2023/09/26 02:54:40;;;;;;;7.80;4.20;;;;;;;15.81;67.73;95117.75;5070367;28;20040;-70
2023/09/26 02:57:06;;;;;;;7.65;3.85;;;;;;;15.80;67.98;95123.97;5069898;28;20070;-70
2023/09/26 02:59:31;;;;;;;12.23;4.03;;;;;;;15.92;66.57;95127.19;5070274;28;20040;-70
2023/09/26 03:01:56;;;;;;;9.30;4.28;;;;;;;15.85;69.23;95133.03;5079091;28;20024;-70
2023/09/26 03:04:22;;;;;;;7.28;4.30;;;;;;;15.89;69.45;95140.56;5090460;28;20085;-69
2023/09/26 03:06:50;;;;;;;7.38;3.85;;;;;;;15.69;67.27;95138.13;5091558;28;20028;-70
2023/09/26 03:09:16;;;;;;;8.20;4.07;;;;;;;15.81;65.24;95146.56;5090129;28;20036;-69
2023/09/26 03:11:43;;;;;;;10.35;3.20;;;;;;;15.80;64.76;95153.59;5072307;28;20086;-70
2023/09/26 03:14:08;;;;;;;9.70;3.58;;;;;;;15.76;66.32;95147.00;5091393;28;20125;-69
2023/09/26 03:16:34;;;;;;;10.73;3.78;;;;;;;15.71;66.90;95137.97;5090242;28;20027;-70
2023/09/26 03:18:59;;;;;;;10.52;3.85;;;;;;;15.73;67.70;95147.31;5088304;28;20040;-70
2023/09/26 03:21:25;;;;;;;6.50;4.18;;;;;;;15.97;67.71;95146.69;5071486;28;20033;-70
2023/09/26 03:23:50;;;;;;;11.85;3.90;;;;;;;15.84;67.79;95147.06;5071027;28;20024;-70
2023/09/26 03:26:16;;;;;;;11.38;4.20;;;;;;;15.64;68.50;95142.94;5071097;28;20325;-71
2023/09/26 03:28:41;;;;;;;6.45;3.60;;;;;;;15.64;68.80;95149.00;5075444;28;20023;-70
2023/09/26 03:31:08;;;;;;;6.38;3.65;;;;;;;15.54;68.49;95145.63;5089874;28;20138;-70
2023/09/26 03:33:34;;;;;;;6.18;3.50;;;;;;;15.53;65.18;95162.31;5089881;28;20052;-70
2023/09/26 03:35:59;;;;;;;7.13;3.22;;;;;;;15.48;65.67;95154.09;5091005;28;20413;-70
2023/09/26 03:38:25;;;;;;;6.25;3.58;;;;;;;15.40;67.55;95151.38;5088318;28;20043;-70
2023/09/26 03:40:58;;;;;;;6.20;3.55;;;;;;;15.51;67.45;95148.56;5090059;28;20160;-70
2023/09/26 03:43:27;;;;;;;8.23;3.83;;;;;;;15.47;66.53;95149.00;5089664;28;20036;-70
2023/09/26 03:46:12;;;;;;;8.55;3.20;;;;;;;15.43;65.23;95153.69;5072962;28;20035;-70
2023/09/26 03:48:38;;;;;;;8.13;3.50;;;;;;;15.38;65.04;95151.56;5090590;28;20048;-70
2023/09/26 03:51:13;;;;;;;7.25;3.28;;;;;;;15.38;65.47;95145.50;5089754;28;20153;-70
2023/09/26 03:53:39;;;;;;;7.88;3.80;;;;;;;15.35;67.06;95153.63;5073012;28;20024;-70
2023/09/26 03:56:05;;;;;;;9.63;3.70;;;;;;;15.52;66.44;95163.31;5069559;28;20131;-69
2023/09/26 03:58:31;;;;;;;5.75;3.25;;;;;;;15.50;66.07;95162.63;5076132;28;20097;-70
2023/09/26 04:01:07;;;;;;;11.63;3.92;;;;;;;15.20;64.93;95154.13;5059540;28;20085;-70
2023/09/26 04:03:32;;;;;;;5.50;2.80;;;;;;;15.32;64.70;95164.38;5076084;28;20037;-70
2023/09/26 04:05:58;;;;;;;6.07;3.65;;;;;;;15.13;65.56;95155.69;5090633;28;20035;-69
2023/09/26 04:08:23;;;;;;;6.03;3.40;;;;;;;15.13;65.05;95160.94;5096244;28;20028;-70
2023/09/26 04:10:49;;;;;;;8.43;3.20;;;;;;;15.23;64.53;95165.28;5096204;28;20504;-70
2023/09/26 04:13:14;;;;;;;8.30;3.05;;;;;;;15.20;63.66;95169.81;5096270;28;20157;-69
2023/09/26 04:15:40;;;;;;;10.27;3.53;;;;;;;15.05;64.28;95165.25;5096307;28;20401;-70
2023/09/26 04:18:05;;;;;;;13.63;3.20;;;;;;;14.98;63.74;95167.59;5097441;28;20036;-70
2023/09/26 04:20:31;;;;;;;9.60;3.10;;;;;;;15.07;64.10;95168.53;5096401;28;20031;-70
2023/09/26 04:22:56;;;;;;;6.40;3.53;;;;;;;14.91;65.30;95174.41;5074954;28;20036;-70
2023/09/26 04:25:21;;;;;;;9.57;3.45;;;;;;;14.93;64.75;95165.44;5059416;28;20043;-70
2023/09/26 04:27:47;;;;;;;11.73;3.50;;;;;;;14.95;63.29;95160.88;5075792;28;20460;-69
2023/09/26 04:30:13;;;;;;;5.03;2.85;;;;;;;15.10;63.52;95169.06;5076033;28;20524;-70
2023/09/26 04:32:38;;;;;;;6.50;3.10;;;;;;;15.02;64.01;95171.59;5085994;28;20027;-70
2023/09/26 04:35:04;;;;;;;7.72;3.30;;;;;;;14.84;63.91;95160.25;5096111;28;20494;-70
2023/09/26 04:37:30;;;;;;;14.13;3.58;;;;;;;14.89;65.39;95174.53;5095941;28;20398;-70
2023/09/26 04:39:55;;;;;;;12.07;3.75;;;;;;;14.95;63.28;95171.34;5097471;28;20031;-69
2023/09/26 04:42:20;;;;;;;9.05;3.97;;;;;;;14.90;64.32;95176.19;5079733;28;20029;-69
2023/09/26 04:44:46;;;;;;;9.75;3.92;;;;;;;14.89;64.78;95168.50;5077182;28;20040;-70
2023/09/26 04:47:11;;;;;;;8.20;3.55;;;;;;;14.72;64.63;95157.00;5075597;28;20032;-69
2023/09/26 04:49:37;;;;;;;11.55;3.50;;;;;;;14.89;64.31;95176.34;5058484;28;20457;-70
2023/09/26 04:52:02;;;;;;;9.65;3.35;;;;;;;14.86;64.54;95174.00;5095713;28;20032;-70
2023/09/26 04:54:28;;;;;;;7.53;4.15;;;;;;;14.86;66.06;95184.47;5095880;28;20047;-70
2023/09/26 04:56:53;;;;;;;9.10;2.90;;;;;;;14.87;66.85;95186.09;5082902;28;20031;-70
2023/09/26 04:59:19;;;;;;;7.30;3.42;;;;;;;14.84;67.13;95186.41;5091251;28;20044;-69
2023/09/26 05:01:45;;;;;;;14.13;3.45;;;;;;;14.82;65.67;95188.31;5079911;28;20411;-69
2023/09/26 05:04:11;;;;;;;7.90;3.00;;;;;;;14.92;66.35;95187.31;5091595;28;20039;-69
2023/09/26 05:06:36;;;;;;;9.38;3.38;;;;;;;14.90;64.26;95170.13;5093995;28;20028;-69
2023/09/26 05:09:01;;;;;;;10.75;3.53;;;;;;;15.13;66.51;95191.50;5088161;28;20032;-69
2023/09/26 05:11:27;;;;;;;8.30;3.25;;;;;;;15.07;66.04;95182.47;5055866;28;20465;-69
2023/09/26 05:13:53;;;;;;;9.38;3.80;;;;;;;15.19;66.58;95193.53;5073513;28;20033;-69
2023/09/26 05:16:18;;;;;;;6.90;3.15;;;;;;;15.25;67.13;95184.28;5075983;28;20032;-69
2023/09/26 05:18:44;;;;;;;6.60;3.20;;;;;;;15.36;67.45;95191.94;5087546;28;20028;-70
2023/09/26 05:21:09;;;;;;;8.75;3.47;;;;;;;15.45;67.53;95198.88;5077907;28;20040;-69
2023/09/26 05:23:35;;;;;;;9.15;3.30;;;;;;;15.39;68.04;95199.47;5081084;28;20508;-69
2023/09/26 05:26:08;;;;;;;10.80;3.58;;;;;;;15.46;67.82;95194.47;5079818;28;20028;-68
2023/09/26 05:28:33;;;;;;;7.05;3.42;;;;;;;15.56;67.27;95169.88;5079867;28;20374;-70
2023/09/26 05:30:59;;;;;;;10.88;3.10;;;;;;;15.88;66.91;95204.41;5083425;28;20505;-70
2023/09/26 05:33:24;;;;;;;7.28;2.92;;;;;;;16.14;66.00;95194.00;5089290;28;20045;-70
2023/09/26 05:35:50;;;;;;;6.78;3.13;;;;;;;16.47;65.31;95189.81;5085571;28;20025;-70
2023/09/26 05:38:15;;;;;;;9.45;3.10;;;;;;;16.67;64.00;95193.06;5062168;28;20399;-71
2023/09/26 05:40:41;;;;;;;9.52;2.95;;;;;;;17.03;63.38;95195.56;5073079;28;20035;-69
2023/09/26 05:43:06;;;;;;;11.85;3.45;;;;;;;17.29;62.62;95185.00;5065516;28;20028;-69
2023/09/26 05:45:31;;;;;;;7.07;2.92;;;;;;;17.70;61.56;95191.16;5090051;28;20483;-70
2023/09/26 05:47:57;;;;;;;7.70;2.90;;;;;;;17.97;61.23;95182.22;5077927;28;20082;-71
2023/09/26 05:50:22;;;;;;;6.78;3.30;;;;;;;18.59;58.28;95183.50;5073798;28;20033;-70
2023/09/26 05:52:48;;;;;;;5.78;2.97;;;;;;;18.98;57.68;95188.84;5072285;28;20085;-71
2023/09/26 05:55:13;;;;;;;8.23;3.88;;;;;;;19.25;57.32;95174.44;5074335;28;20112;-69
2023/09/26 05:57:39;;;;;;;9.45;3.20;;;;;;;19.74;54.51;95186.53;5085023;28;20122;-70
2023/09/26 06:00:11;;;;;;;11.23;3.05;;;;;;;19.89;50.45;95189.22;5085854;28;20540;-69
2023/09/26 06:02:37;;;;;;;8.90;3.00;;;;;;;20.39;48.50;95186.03;5089477;28;20053;-69
2023/09/26 06:05:02;;;;;;;6.95;3.08;;;;;;;20.82;51.15;95190.78;5089513;28;20035;-69
2023/09/26 06:07:28;;;;;;;10.50;3.78;;;;;;;20.81;49.46;95189.13;5090979;28;20063;-69
2023/09/26 06:09:53;;;;;;;12.00;3.30;;;;;;;21.19;49.03;95198.59;5088046;28;20502;-69
2023/09/26 06:12:18;;;;;;;9.45;2.97;;;;;;;21.08;46.78;95174.47;5081780;28;20020;-69
2023/09/26 06:14:46;;;;;;;13.40;3.20;;;;;;;21.35;45.70;95194.94;5068629;28;20044;-70
2023/09/26 06:17:11;;;;;;;7.80;2.78;;;;;;;21.86;43.50;95192.31;5083470;28;20025;-70
2023/09/26 06:19:37;;;;;;;12.57;3.28;;;;;;;21.90;44.08;95184.00;5086557;28;20024;-70
2023/09/26 06:22:02;;;;;;;11.07;3.00;;;;;;;22.46;43.44;95147.91;5087833;28;20489;-70
2023/09/26 06:24:28;;;;;;;11.82;3.15;;;;;;;22.60;41.49;95154.13;5085445;28;20044;-70
2023/09/26 06:26:53;;;;;;;10.25;2.70;;;;;;;22.69;40.98;95189.19;5087741;28;20073;-70
2023/09/26 06:29:19;;;;;;;12.60;3.05;;;;;;;23.24;40.83;95186.72;5067443;28;20255;-70
2023/09/26 06:31:45;;;;;;;8.30;2.65;;;;;;;23.29;40.15;95185.13;5068508;28;20453;-70
2023/09/26 06:34:10;;;;;;;11.00;3.53;;;;;;;23.17;40.77;95198.06;5069849;28;20041;-70
2023/09/26 06:36:37;;;;;;;14.48;3.30;;;;;;;23.04;40.54;95197.19;5070270;28;20035;-70
2023/09/26 06:39:02;;;;;;;9.95;2.88;;;;;;;22.17;41.78;95185.88;5069753;28;20111;-70
2023/09/26 06:41:28;;;;;;;12.85;2.95;;;;;;;22.27;42.29;95177.69;5083534;28;20110;-70
2023/09/26 06:43:53;;;;;;;13.90;3.30;;;;;;;22.02;43.02;95190.44;5087475;28;20093;-70
2023/09/26 06:46:18;;;;;;;9.82;2.67;;;;;;;21.94;42.75;95190.56;5090028;28;20078;-70
2023/09/26 06:48:44;;;;;;;12.27;3.15;;;;;;;21.77;43.85;95182.03;5088590;28;20247;-70
2023/09/26 06:51:10;;;;;;;9.23;3.00;;;;;;;21.67;43.48;95192.09;5088699;28;20024;-70
2023/09/26 06:53:36;;;;;;;13.45;3.03;;;;;;;21.60;44.10;95178.81;5090092;28;20116;-69
2023/09/26 06:56:02;;;;;;;10.00;2.78;;;;;;;21.60;44.11;95192.03;5090530;28;20031;-69
2023/09/26 06:58:28;;;;;;;10.13;3.10;;;;;;;21.75;44.10;95179.56;5073547;28;20101;-70
2023/09/26 07:00:53;;;;;;;8.32;3.25;;;;;;;21.95;44.39;95192.19;5090431;28;20028;-70
2023/09/26 07:03:18;;;;;;;9.75;3.17;;;;;;;22.20;43.79;95179.44;5072454;28;20024;-71
2023/09/26 07:05:44;;;;;;;13.02;3.03;;;;;;;22.20;43.64;95187.38;5072920;28;20039;-70
2023/09/26 07:08:12;;;;;;;11.27;3.00;;;;;;;22.11;44.01;95178.72;5090319;28;20058;-70
2023/09/26 07:10:38;;;;;;;8.85;3.08;;;;;;;21.57;44.98;95187.13;5092032;28;20020;-69
2023/09/26 07:13:04;;;;;;;11.55;3.40;;;;;;;21.71;44.81;95186.25;5073364;28;20035;-70
2023/09/26 07:15:31;;;;;;;10.70;2.92;;;;;;;20.60;46.95;95200.41;5091849;28;20032;-70
2023/09/26 07:17:58;;;;;;;10.45;3.65;;;;;;;20.67;47.20;95188.13;5091443;28;20107;-70
2023/09/26 07:20:28;;;;;;;7.75;2.60;;;;;;;20.67;47.32;95194.22;5073497;28;20032;-70
2023/09/26 07:22:54;;;;;;;10.48;3.85;;;;;;;20.87;46.83;95189.25;5090124;28;20494;-69
2023/09/26 07:25:19;;;;;;;10.27;3.30;;;;;;;21.04;46.88;95194.34;5090273;28;20036;-69
2023/09/26 07:27:45;;;;;;;9.82;2.97;;;;;;;21.26;46.50;95190.78;5073028;28;20494;-69
2023/09/26 07:30:11;;;;;;;11.98;2.95;;;;;;;21.20;47.03;95191.50;5056181;28;20032;-70
2023/09/26 07:32:36;;;;;;;14.15;3.80;;;;;;;21.29;46.68;95176.38;5089939;28;20028;-70
2023/09/26 07:35:02;;;;;;;12.80;2.95;;;;;;;21.35;46.80;95187.03;5089942;28;20048;-70
2023/09/26 07:37:27;;;;;;;10.20;3.08;;;;;;;21.19;46.86;95166.91;5091086;28;20110;-70
2023/09/26 07:39:53;;;;;;;9.82;3.13;;;;;;;21.55;46.16;95167.97;5089989;28;20109;-69
2023/09/26 07:42:19;;;;;;;10.32;2.95;;;;;;;21.55;45.82;95192.56;5073010;28;20547;-69
2023/09/26 07:44:44;;;;;;;10.13;3.20;;;;;;;20.94;45.70;95160.28;5089892;28;20111;-70
2023/09/26 07:47:10;;;;;;;9.75;3.00;;;;;;;21.68;45.74;95175.25;5089814;28;20054;-70
2023/09/26 07:49:35;;;;;;;13.00;3.13;;;;;;;21.58;45.08;95173.69;5091259;28;20024;-70
2023/09/26 07:52:00;;;;;;;9.25;2.70;;;;;;;21.74;44.72;95170.03;5089665;28;20414;-70
2023/09/26 07:54:26;;;;;;;11.45;3.25;;;;;;;21.65;45.06;95168.50;5089697;28;20030;-70
2023/09/26 07:56:51;;;;;;;8.32;2.90;;;;;;;21.77;43.95;95163.53;5089963;28;20078;-70
2023/09/26 07:59:16;;;;;;;10.35;3.20;;;;;;;21.78;44.01;95165.97;5091064;28;20101;-70
2023/09/26 08:01:42;;;;;;;6.82;3.17;;;;;;;21.74;43.85;95164.72;5090934;28;20666;-70
2023/09/26 08:04:07;;;;;;;15.73;2.92;;;;;;;21.83;43.63;95168.06;5090920;28;20049;-70
2023/09/26 08:06:33;;;;;;;11.63;3.45;;;;;;;21.66;43.04;95148.97;5090832;28;20164;-70
2023/09/26 08:08:58;;;;;;;9.65;2.80;;;;;;;21.81;43.43;95170.91;5089539;28;20051;-70
2023/09/26 08:11:28;;;;;;;12.23;2.97;;;;;;;22.03;43.79;95165.63;5089683;28;20031;-70
2023/09/26 08:13:53;;;;;;;10.48;2.92;;;;;;;21.79;44.47;95165.00;5089507;28;20044;-70
2023/09/26 08:16:19;;;;;;;13.27;3.30;;;;;;;21.74;43.96;95164.72;5089464;28;20036;-70
2023/09/26 08:18:44;;;;;;;7.13;3.03;;;;;;;21.94;43.23;95158.81;5090626;28;20462;-69
2023/09/26 08:21:10;;;;;;;5.95;3.20;;;;;;;22.23;42.18;95149.94;5090739;28;20078;-70
2023/09/26 08:23:35;;;;;;;12.38;3.25;;;;;;;;;;5090551;28;20035;-70
2023/09/26 08:26:02;;;;;;;9.30;2.97;;;;;;;22.28;42.28;95145.72;5072591;28;20024;-70
2023/09/26 08:28:28;;;;;;;8.07;2.80;;;;;;;21.79;43.20;95140.38;5089241;28;20274;-70
2023/09/26 08:30:56;;;;;;;8.05;2.80;;;;;;;22.02;42.99;95129.59;5072697;28;20027;-69
2023/09/26 08:33:24;;;;;;;10.07;2.97;;;;;;;22.27;42.63;95144.09;5072908;28;20032;-70
2023/09/26 08:35:51;;;;;;;11.50;3.20;;;;;;;22.06;42.50;95142.28;5090436;28;20466;-70
2023/09/26 08:38:17;;;;;;;9.38;3.38;;;;;;;21.98;42.05;95139.75;5090405;28;20024;-69
2023/09/26 08:40:43;;;;;;;7.47;2.60;;;;;;;22.14;41.52;95136.00;5089492;28;20555;-69
2023/09/26 08:43:08;;;;;;;13.13;3.08;;;;;;;22.20;42.60;95137.91;5058547;28;20031;-70
2023/09/26 08:45:34;;;;;;;6.53;2.97;;;;;;;22.14;42.55;95143.94;5074963;28;20419;-70
2023/09/26 08:47:59;;;;;;;9.77;2.65;;;;;;;22.09;40.98;95148.97;5058836;28;20093;-70
2023/09/26 08:50:25;;;;;;;12.82;2.78;;;;;;;21.98;41.85;95152.97;5076107;28;20035;-70
2023/09/26 08:52:51;;;;;;;9.45;2.60;;;;;;;21.94;41.74;95154.34;5092837;28;20103;-69
2023/09/26 08:55:17;;;;;;;8.93;2.90;;;;;;;21.97;41.71;95142.56;5075166;28;20036;-70
2023/09/26 08:57:43;;;;;;;6.80;2.80;;;;;;;21.98;42.02;95147.69;5092908;28;20055;-70
2023/09/26 09:00:09;;;;;;;11.02;3.05;;;;;;;21.82;42.54;95143.47;5075174;28;20043;-70
2023/09/26 09:02:37;;;;;;;8.38;2.85;;;;;;;21.99;42.54;95156.44;5076065;28;20504;-69
2023/09/26 09:05:03;;;;;;;7.65;2.80;;;;;;;21.95;41.77;95141.94;5059347;28;20036;-69
2023/09/26 09:07:30;;;;;;;10.75;2.90;;;;;;;21.92;42.66;95148.41;5093849;28;20536;-69
2023/09/26 09:10:10;;;;;;;9.77;3.35;;;;;;;21.91;42.96;95159.19;5076009;28;20047;-70
2023/09/26 09:12:37;;;;;;;;;;;;;;;21.68;42.97;95152.28;5093040;28;20061;-70
2023/09/26 09:15:12;;;;;;;7.70;2.70;;;;;;;21.68;43.20;95146.97;5092557;28;19931;-70
2023/09/26 09:17:43;;;;;;;9.80;2.80;;;;;;;21.70;42.91;95152.88;5076756;28;20452;-70
2023/09/26 09:20:10;;;;;;;6.90;2.83;;;;;;;21.62;43.48;95148.56;5076155;28;20129;-70
2023/09/26 09:22:35;;;;;;;8.00;2.85;;;;;;;21.69;43.67;95150.44;5093834;28;20016;-70
2023/09/26 09:25:01;;;;;;;11.77;3.00;;;;;;;21.87;42.92;95142.91;5092463;28;20058;-70
2023/09/26 09:27:35;;;;;;;7.38;2.80;;;;;;;21.82;43.52;95134.72;5092163;28;20054;-70
2023/09/26 09:30:05;;;;;;;11.70;2.70;;;;;;;21.81;43.71;95117.19;5092378;28;20038;-70
2023/09/26 09:32:30;;;;;;;6.28;2.63;;;;;;;21.82;42.22;95127.59;5058784;28;20024;-70
2023/09/26 09:34:56;;;;;;;8.25;2.85;;;;;;;21.78;42.82;95128.16;5092203;28;20412;-69
2023/09/26 09:37:21;;;;;;;5.65;2.70;;;;;;;21.83;42.22;95118.66;5075142;28;20081;-70
2023/09/26 09:39:47;;;;;;;9.88;3.03;;;;;;;21.98;41.88;95123.03;5092149;28;20097;-69
2023/09/26 09:42:12;;;;;;;6.75;2.80;;;;;;;21.94;42.67;95116.50;5075072;28;20093;-69
2023/09/26 09:44:38;;;;;;;8.07;2.75;;;;;;;21.95;42.33;95120.78;5092106;28;20047;-69
2023/09/26 09:47:04;;;;;;;6.22;2.50;;;;;;;21.86;42.20;95122.75;5091863;28;20036;-70
2023/09/26 09:49:31;;;;;;;10.63;2.97;;;;;;;21.88;42.18;95123.38;5075154;28;20474;-70
2023/09/26 09:51:57;;;;;;;8.23;2.85;;;;;;;21.85;42.20;95108.72;5074882;28;20024;-69
2023/09/26 09:54:22;;;;;;;9.55;2.88;;;;;;;21.98;42.17;95117.75;5074716;28;20058;-70
2023/09/26 09:56:48;;;;;;;10.38;2.70;;;;;;;21.91;41.97;95109.78;5074943;28;20387;-70
2023/09/26 09:59:15;;;;;;;10.35;2.78;;;;;;;22.08;41.75;95107.69;5074960;28;20060;-69
2023/09/26 10:01:49;;;;;;;8.43;2.65;;;;;;;22.24;40.79;95112.72;5091653;28;20028;-69
2023/09/26 10:04:15;;;;;;;6.18;2.53;;;;;;;22.23;40.30;95112.91;5091722;28;20293;-69
2023/09/26 10:06:42;;;;;;;9.43;2.70;;;;;;;22.23;40.18;95111.09;5074791;28;20020;-70
2023/09/26 10:09:08;;;;;;;7.95;2.60;;;;;;;22.21;42.26;95097.25;5074631;28;20031;-70
2023/09/26 10:11:33;;;;;;;6.05;2.75;;;;;;;22.35;41.10;95108.75;5058059;28;20024;-70
2023/09/26 10:13:58;;;;;;;8.07;2.88;;;;;;;22.44;41.06;95101.47;5074487;28;20039;-69
2023/09/26 10:16:25;;;;;;;5.85;2.25;;;;;;;22.40;40.32;95092.25;5057652;28;20421;-69
2023/09/26 10:18:50;;;;;;;6.53;2.42;;;;;;;22.23;39.90;95094.38;5074470;28;20036;-70
2023/09/26 10:21:29;;;;;;;6.57;2.70;;;;;;;22.30;39.99;95098.72;5092494;28;20398;-70
2023/09/26 10:24:12;;;;;;;7.10;2.78;;;;;;;22.36;40.47;95099.78;5074911;28;20060;-69
2023/09/26 10:26:45;;;;;;;6.40;2.53;;;;;;;22.24;40.27;95088.91;5092363;28;20028;-70
2023/09/26 10:29:22;;;;;;;5.80;2.45;;;;;;;22.24;39.74;95101.34;5074324;28;20553;-69
2023/09/26 10:32:04;;;;;;;7.40;2.47;;;;;;;22.28;40.58;95084.84;5090942;28;20035;-70
2023/09/26 10:34:32;;;;;;;6.05;2.40;;;;;;;22.39;40.48;95091.44;5075000;28;20512;-69
2023/09/26 10:36:58;;;;;;;8.27;2.20;;;;;;;22.00;40.43;95091.94;5074223;28;20032;-70
2023/09/26 10:39:37;;;;;;;6.18;2.58;;;;;;;22.01;40.96;95083.03;5090669;28;20418;-71
2023/09/26 10:42:12;;;;;;;8.82;3.30;;;;;;;21.99;41.13;95085.03;5074008;28;20024;-69
2023/09/26 10:44:43;;;;;;;7.22;2.75;;;;;;;21.72;41.19;95086.63;5074522;28;20445;-69
2023/09/26 10:47:10;;;;;;;5.88;2.65;;;;;;;21.77;41.42;95085.03;5090755;28;20085;-69
2023/09/26 10:49:35;;;;;;;7.70;2.83;;;;;;;21.84;41.56;95080.63;5074065;28;20058;-70
2023/09/26 10:52:01;;;;;;;6.50;2.60;;;;;;;22.02;41.17;95082.00;5091806;28;20494;-70
2023/09/26 10:54:27;;;;;;;10.50;2.85;;;;;;;22.05;41.37;95073.69;5073585;28;20410;-70
2023/09/26 10:56:53;;;;;;;6.40;2.40;;;;;;;22.26;40.48;95073.69;5073746;28;20106;-70
2023/09/26 10:59:18;;;;;;;6.90;2.63;;;;;;;22.27;40.69;95066.53;5090610;28;20052;-70
2023/09/26 11:01:45;;;;;;;8.15;2.60;;;;;;;22.25;40.11;95065.91;5073585;28;20032;-70
2023/09/26 11:04:10;;;;;;;7.03;2.28;;;;;;;22.34;39.63;95058.63;5073107;28;20043;-69
2023/09/26 11:06:37;;;;;;;6.60;2.25;;;;;;;22.30;40.35;95043.16;5073362;28;20410;-69
2023/09/26 11:09:03;;;;;;;8.38;2.60;;;;;;;22.35;40.77;95068.25;5073402;28;20040;-70
2023/09/26 11:11:28;;;;;;;7.53;2.38;;;;;;;22.30;40.61;95055.56;5073526;28;20093;-70
2023/09/26 11:13:54;;;;;;;7.70;2.60;;;;;;;22.41;41.20;95062.97;5091433;28;20423;-70
2023/09/26 11:16:19;;;;;;;5.75;2.95;;;;;;;22.10;42.14;95071.28;5073353;28;20531;-70
2023/09/26 11:18:44;;;;;;;9.77;3.20;;;;;;;22.20;42.20;95063.03;5090170;28;20039;-69
2023/09/26 11:21:10;;;;;;;13.35;3.45;;;;;;;22.20;42.60;95058.53;5090228;28;20085;-70
2023/09/26 11:23:36;;;;;;;9.30;3.15;;;;;;;22.20;42.47;95063.03;5091276;28;20020;-70
2023/09/26 11:26:03;;;;;;;8.48;3.30;;;;;;;22.28;42.71;95066.34;5090109;28;20429;-69
2023/09/26 11:28:30;;;;;;;13.88;3.28;;;;;;;22.06;43.65;95062.06;5056792;28;20123;-70